Time;durP1;ratioP1;P1;durP2;ratioP2;P2;SDS_P1;SDS_P2;PMS_P1;PMS_P2;Temp;Humidity;BMP_temperature;BMP_pressure;BME280_temperature;BME280_humidity;BME280_pressure;Samples;Min_cycle;Max_cycle;Signal;HPM_P1;HPM_P2
2023/06/22 00:02:10;;;;;;;12.90;9.90;;;;;;;20.15;81.47;98921.83;222276;1302;22627;-72
2023/06/22 00:07:12;;;;;;;12.10;9.80;;;;;;;20.13;81.44;98926.51;222174;1302;22571;-72
2023/06/22 00:12:14;;;;;;;11.80;9.10;;;;;;;20.07;81.65;98934.15;222298;1302;25293;-73
2023/06/22 00:17:42;;;;;;;12.10;10.30;;;;;;;19.99;81.67;98933.30;222163;1303;25282;-71
2023/06/22 00:23:01;;;;;;;12.30;10.00;;;;;;;19.93;81.85;98930.34;222187;1302;22566;-71
2023/06/22 00:28:05;;;;;;;23.80;11.70;;;;;;;19.88;81.95;98923.63;222220;1303;22562;-72
2023/06/22 00:33:09;;;;;;;12.10;9.20;;;;;;;19.82;82.08;98921.92;222172;1301;23038;-73
2023/06/22 00:38:11;;;;;;;11.20;9.50;;;;;;;19.77;82.11;98925.52;222180;1302;22562;-72
2023/06/22 00:43:19;;;;;;;13.00;9.20;;;;;;;19.74;82.30;98921.14;222288;1302;24921;-72
2023/06/22 00:48:22;;;;;;;10.20;8.40;;;;;;;19.70;82.44;98921.64;222289;1303;22584;-71
2023/06/22 00:53:40;;;;;;;12.20;8.10;;;;;;;19.69;82.52;98924.14;222308;1303;22664;-71
2023/06/22 00:58:43;;;;;;;9.90;8.10;;;;;;;19.68;82.53;98928.03;222185;1303;22573;-72
2023/06/22 01:03:51;;;;;;;11.80;8.20;;;;;;;19.66;82.54;98924.88;222202;1303;22572;-72
2023/06/22 01:09:06;;;;;;;11.30;8.30;;;;;;;19.62;82.53;98931.98;222175;1301;22573;-71
2023/06/22 01:14:18;;;;;;;12.50;8.40;;;;;;;19.57;82.68;98927.40;222083;1302;22584;-72
2023/06/22 01:19:43;;;;;;;13.00;8.60;;;;;;;19.52;82.76;98927.69;222270;1302;22570;-72
2023/06/22 01:25:13;;;;;;;10.70;7.20;;;;;;;19.48;82.77;98935.59;222094;1302;22901;-72
2023/06/22 01:30:17;;;;;;;11.00;8.10;;;;;;;19.42;82.80;98934.83;222304;1296;26243;-72
2023/06/22 01:35:24;;;;;;;8.90;7.80;;;;;;;19.37;82.84;98935.77;222261;1301;22587;-72
2023/06/22 01:40:40;;;;;;;14.00;8.80;;;;;;;19.35;83.06;98940.33;222364;1298;23508;-72
2023/06/22 01:45:43;;;;;;;12.30;8.20;;;;;;;19.32;83.12;98945.41;222257;1296;22564;-72
2023/06/22 01:50:45;;;;;;;13.50;8.20;;;;;;;19.28;83.14;98941.77;222339;1302;22566;-71
2023/06/22 01:55:48;;;;;;;9.70;7.70;;;;;;;19.25;83.33;98941.29;222352;1303;22770;-73
2023/06/22 02:01:10;;;;;;;9.40;7.70;;;;;;;19.20;83.43;98943.17;222330;1299;22643;-72
2023/06/22 02:06:32;;;;;;;12.00;7.60;;;;;;;19.15;83.58;98944.09;222230;1301;22581;-72
2023/06/22 02:11:55;;;;;;;9.70;7.50;;;;;;;19.09;83.76;98956.41;222207;1302;22566;-72
2023/06/22 02:17:12;;;;;;;10.30;7.20;;;;;;;19.05;83.80;98962.48;222269;1302;22592;-72
2023/06/22 02:22:17;;;;;;;10.20;6.90;;;;;;;19.03;84.06;98967.76;222209;1300;22592;-71
2023/06/22 02:27:19;;;;;;;13.50;7.90;;;;;;;19.00;84.13;98966.52;222117;1302;22731;-72
2023/06/22 02:32:29;;;;;;;12.80;8.40;;;;;;;18.95;84.18;98974.20;222300;1302;22585;-72
2023/06/22 02:37:32;;;;;;;9.70;8.50;;;;;;;18.93;84.38;98981.16;222360;1296;22562;-73
2023/06/22 02:42:35;;;;;;;10.20;8.50;;;;;;;18.93;84.50;98987.46;221977;1302;22565;-72
2023/06/22 02:47:37;;;;;;;10.20;8.10;;;;;;;18.93;84.52;98998.84;222077;1301;22566;-72
2023/06/22 02:52:43;;;;;;;10.70;7.90;;;;;;;18.93;84.63;99000.81;222354;1302;22568;-73
2023/06/22 02:57:59;;;;;;;14.60;8.50;;;;;;;18.94;84.69;99009.61;222058;1302;22557;-72
2023/06/22 03:03:03;;;;;;;13.80;8.60;;;;;;;18.94;84.80;99005.45;222314;1299;22565;-72
2023/06/22 03:08:06;;;;;;;12.10;8.30;;;;;;;18.92;84.75;99015.25;222076;1301;22967;-72
2023/06/22 03:13:13;;;;;;;9.30;8.30;;;;;;;18.92;84.97;99017.23;222369;1302;22603;-72
2023/06/22 03:18:16;;;;;;;11.80;8.40;;;;;;;18.97;84.98;99014.66;222031;1302;23265;-72
2023/06/22 03:23:34;;;;;;;;;;;;;;;;;;;;;
2023/06/22 03:28:49;;;;;;;12.20;9.70;;;;;;;19.08;85.00;99009.80;222256;1302;22595;-72
2023/06/22 03:33:54;;;;;;;14.40;8.80;;;;;;;19.15;84.99;99021.18;222166;1303;22645;-72
2023/06/22 03:38:57;;;;;;;12.60;8.80;;;;;;;19.31;84.87;99032.80;222080;1301;22552;-72
2023/06/22 03:44:03;;;;;;;12.70;10.50;;;;;;;19.49;84.87;99028.73;222104;1302;22638;-71
2023/06/22 03:49:05;;;;;;;14.30;11.40;;;;;;;19.64;84.83;99019.90;222159;1301;22585;-72
2023/06/22 03:54:07;;;;;;;17.00;12.50;;;;;;;19.97;84.61;99013.45;222324;1298;22577;-73
2023/06/22 03:59:09;;;;;;;14.10;12.60;;;;;;;20.35;84.32;99018.15;222287;1302;22577;-72
2023/06/22 04:04:27;;;;;;;13.60;11.60;;;;;;;20.68;83.91;99031.75;222147;1298;22588;-72
2023/06/22 04:09:29;;;;;;;13.70;12.30;;;;;;;20.96;83.22;99044.42;222038;1303;22573;-72
2023/06/22 04:14:32;;;;;;;16.10;13.20;;;;;;;21.01;82.58;99049.82;222139;1301;22565;-72
2023/06/22 04:19:34;;;;;;;15.90;13.90;;;;;;;21.01;82.47;99045.26;222186;1301;22566;-73
2023/06/22 04:24:36;;;;;;;19.60;17.10;;;;;;;21.04;82.45;99050.19;222263;1301;22561;-72
2023/06/22 04:29:48;;;;;;;26.90;18.50;;;;;;;21.18;82.91;99050.00;222207;1298;22566;-73
2023/06/22 04:34:53;;;;;;;19.80;17.70;;;;;;;21.39;82.81;99054.94;222166;1302;22633;-71
2023/06/22 04:39:58;;;;;;;20.20;17.90;;;;;;;21.57;82.50;99059.33;222253;1302;22585;-73
2023/06/22 04:45:00;;;;;;;21.20;19.00;;;;;;;21.67;82.19;99057.40;222014;1301;22587;-73
2023/06/22 04:50:09;;;;;;;23.50;20.10;;;;;;;21.84;82.32;99055.96;222151;1301;22581;-73
2023/06/22 04:55:21;;;;;;;22.90;20.60;;;;;;;22.08;82.35;99053.02;222078;1301;22573;-72
2023/06/22 05:00:29;;;;;;;24.80;22.30;;;;;;;22.44;82.05;99060.76;222162;1302;22580;-73
2023/06/22 05:05:31;;;;;;;26.20;23.60;;;;;;;22.76;81.55;99073.45;222194;1298;22569;-74
2023/06/22 05:10:36;;;;;;;26.60;24.00;;;;;;;22.90;81.10;99074.19;221933;1302;25303;-73
2023/06/22 05:15:47;;;;;;;27.00;24.20;;;;;;;22.97;80.77;99082.37;222018;1301;22561;-73
2023/06/22 05:21:03;;;;;;;28.30;25.50;;;;;;;23.00;80.57;99081.91;222153;1298;22595;-73
2023/06/22 05:26:05;;;;;;;27.10;24.50;;;;;;;23.08;80.44;99084.30;222100;1301;22577;-72
2023/06/22 05:31:07;;;;;;;27.60;25.00;;;;;;;23.15;80.11;99088.17;222101;1301;22616;-73
2023/06/22 05:36:10;;;;;;;27.70;25.00;;;;;;;23.22;79.81;99089.02;222195;1298;22566;-72
2023/06/22 05:41:12;;;;;;;27.90;25.10;;;;;;;23.29;79.58;99088.95;221960;1298;22635;-71
2023/06/22 05:46:17;;;;;;;28.70;25.70;;;;;;;23.38;79.38;99085.42;221829;1301;24760;-72
2023/06/22 05:51:19;;;;;;;26.80;24.10;;;;;;;23.53;79.48;99079.55;221991;1298;23569;-72
2023/06/22 05:56:24;;;;;;;26.90;23.80;;;;;;;23.70;78.85;99081.14;221744;1295;24305;-72
2023/06/22 06:01:34;;;;;;;27.60;24.70;;;;;;;23.85;78.42;99084.14;221972;1295;22752;-71
2023/06/22 06:06:40;;;;;;;26.90;24.30;;;;;;;23.98;77.91;99096.09;221696;1289;24295;-72
2023/06/22 06:11:55;;;;;;;26.40;24.00;;;;;;;24.09;77.44;99099.45;221408;1291;139171;-70
2023/06/22 06:16:59;;;;;;;25.30;21.90;;;;;;;24.19;77.03;99101.91;221431;1298;383452;-71
2023/06/22 06:22:07;;;;;;;24.60;22.30;;;;;;;24.31;76.38;99099.89;221904;1295;138878;-71
2023/06/22 06:27:19;;;;;;;25.40;22.90;;;;;;;24.37;75.63;99093.94;221367;1289;138981;-70
2023/06/22 06:32:27;;;;;;;24.30;22.20;;;;;;;24.40;75.09;99098.59;221490;1296;138919;-71
2023/06/22 06:37:29;;;;;;;22.60;20.60;;;;;;;24.47;74.83;99107.84;221459;1282;138866;-71
2023/06/22 06:42:31;;;;;;;24.90;22.60;;;;;;;24.55;74.37;99114.26;221659;1300;22651;-71
2023/06/22 06:47:40;;;;;;;23.10;21.00;;;;;;;24.58;73.82;99107.23;221437;1285;138726;-70
2023/06/22 06:52:42;;;;;;;22.90;20.80;;;;;;;24.66;73.97;99108.25;221510;1279;138913;-71
2023/06/22 06:57:48;;;;;;;22.10;20.10;;;;;;;24.81;73.70;99108.23;221618;1288;138932;-71
2023/06/22 07:03:07;;;;;;;21.70;19.70;;;;;;;24.97;73.09;99109.42;221669;1288;139015;-70
2023/06/22 07:08:12;;;;;;;22.50;20.50;;;;;;;25.10;72.41;99112.42;221565;1292;138885;-72
2023/06/22 07:13:14;;;;;;;22.70;20.50;;;;;;;25.17;72.12;99108.41;221978;1295;22613;-72
2023/06/22 07:18:16;;;;;;;20.40;18.50;;;;;;;25.28;72.04;99112.80;221899;1301;138524;-71
2023/06/22 07:23:18;;;;;;;21.20;19.30;;;;;;;25.49;71.70;99113.91;221611;1282;139021;-71
2023/06/22 07:28:20;;;;;;;21.40;19.40;;;;;;;25.67;70.91;99112.40;221598;1295;138964;-71
2023/06/22 07:33:22;;;;;;;21.30;19.40;;;;;;;25.80;70.36;99107.35;221684;1288;139084;-71
2023/06/22 07:38:24;;;;;;;19.40;17.60;;;;;;;25.96;70.12;99107.48;221626;1292;139019;-70
2023/06/22 07:43:26;;;;;;;19.00;17.40;;;;;;;26.19;70.05;99115.18;221577;1299;138970;-70
2023/06/22 07:48:31;;;;;;;18.80;17.20;;;;;;;26.34;69.24;99119.22;221708;1279;22575;-71
2023/06/22 07:53:33;;;;;;;19.10;17.40;;;;;;;26.53;68.99;99126.98;221600;1289;138420;-69
2023/06/22 07:58:35;;;;;;;22.20;18.60;;;;;;;26.70;68.37;99129.48;221824;1279;138421;-69
2023/06/22 08:03:37;;;;;;;18.80;17.00;;;;;;;26.88;67.86;99123.74;221773;1301;138290;-71
2023/06/22 08:08:42;;;;;;;18.70;17.10;;;;;;;27.00;67.36;99126.91;221855;1298;138363;-71
2023/06/22 08:13:44;;;;;;;17.50;16.00;;;;;;;27.11;66.74;99135.54;221418;1301;138270;-70
2023/06/22 08:18:47;;;;;;;15.60;14.20;;;;;;;27.20;65.96;99141.72;221674;1295;22741;-70
2023/06/22 08:23:49;;;;;;;15.10;13.70;;;;;;;27.11;65.36;99150.83;221885;1301;137840;-71
2023/06/22 08:28:51;;;;;;;12.30;11.30;;;;;;;27.08;65.01;99150.21;221885;1295;138054;-74
2023/06/22 08:33:53;;;;;;;12.70;11.70;;;;;;;27.13;64.14;99154.98;221775;1295;138238;-70
2023/06/22 08:39:01;;;;;;;13.80;12.60;;;;;;;27.24;63.92;99158.78;221680;1301;138451;-70
2023/06/22 08:44:03;;;;;;;14.20;13.00;;;;;;;27.34;63.66;99159.37;221868;1298;138234;-71
2023/06/22 08:49:06;;;;;;;15.10;13.80;;;;;;;27.52;63.81;99156.02;221918;1301;22597;-71
2023/06/22 08:54:08;;;;;;;14.80;13.60;;;;;;;27.71;63.38;99148.81;221879;1295;138071;-72
2023/06/22 08:59:10;;;;;;;14.20;12.90;;;;;;;27.77;62.87;99146.59;221784;1295;138154;-70
2023/06/22 09:04:13;;;;;;;13.50;12.30;;;;;;;27.92;62.90;99145.38;221804;1301;138411;-70
2023/06/22 09:09:16;;;;;;;13.40;12.30;;;;;;;28.04;62.01;99141.24;221778;1295;138218;-71
2023/06/22 09:14:22;;;;;;;13.60;12.30;;;;;;;28.07;61.54;99131.08;222077;1299;138480;-71
2023/06/22 09:19:24;;;;;;;13.40;12.20;;;;;;;28.13;61.03;99126.71;221982;1287;138366;-70
2023/06/22 09:24:36;;;;;;;13.20;12.00;;;;;;;28.23;60.93;99125.17;221920;1284;22570;-70
2023/06/22 09:29:38;;;;;;;13.00;11.80;;;;;;;28.31;60.44;99115.70;221618;1282;137977;-71
2023/06/22 09:34:41;;;;;;;13.10;12.00;;;;;;;28.44;60.27;99114.68;221812;1298;138118;-70
2023/06/22 09:39:43;;;;;;;12.40;11.30;;;;;;;28.60;59.72;99109.48;221811;1288;138159;-69
2023/06/22 09:44:45;;;;;;;12.30;11.20;;;;;;;28.70;59.54;99096.61;221954;1298;138265;-70
2023/06/22 09:49:47;;;;;;;11.10;10.10;;;;;;;28.74;59.04;99090.95;221838;1288;138352;-70
2023/06/22 09:54:50;;;;;;;11.00;10.10;;;;;;;28.77;58.09;99093.28;221917;1280;22602;-70
2023/06/22 09:59:57;;;;;;;10.80;10.00;;;;;;;28.84;58.20;99086.16;221679;1279;137854;-70
2023/06/22 10:04:59;;;;;;;11.10;10.20;;;;;;;28.97;57.98;99085.55;221367;1301;138126;-72
2023/06/22 10:10:02;;;;;;;11.50;10.50;;;;;;;29.17;58.31;99084.62;221594;1301;138213;-71
2023/06/22 10:15:14;;;;;;;10.50;9.60;;;;;;;29.29;57.31;99085.20;221969;1285;138393;-72
2023/06/22 10:20:28;;;;;;;10.70;9.70;;;;;;;29.36;56.56;99079.49;221548;1298;138061;-70
2023/06/22 10:25:32;;;;;;;10.40;9.60;;;;;;;29.50;56.29;99081.30;221657;1300;138951;-70
2023/06/22 10:30:34;;;;;;;10.50;9.60;;;;;;;29.62;56.27;99077.34;221492;1296;22572;-71
2023/06/22 10:35:39;;;;;;;10.50;9.70;;;;;;;29.65;56.10;99080.81;221310;1301;138784;-70
2023/06/22 10:40:45;;;;;;;10.90;9.90;;;;;;;29.77;56.10;99086.36;221611;1301;137905;-71
2023/06/22 10:45:47;;;;;;;10.30;9.40;;;;;;;29.92;55.22;99087.89;221480;1287;138144;-72
2023/06/22 10:50:49;;;;;;;9.80;8.90;;;;;;;29.99;54.48;99090.80;221576;1285;138088;-72
2023/06/22 10:55:54;;;;;;;11.10;10.20;;;;;;;30.03;54.36;99082.04;221282;1299;137851;-72
2023/06/22 11:09:29;;;;;;;11.30;10.30;;;;;;;30.26;54.07;99067.81;221937;1300;137816;-72
2023/06/22 11:14:33;;;;;;;11.40;10.40;;;;;;;30.33;54.07;99062.63;221789;1298;151439;-72
2023/06/22 11:19:36;;;;;;;10.20;9.40;;;;;;;30.36;53.73;99057.73;221676;1301;140118;-73
2023/06/22 11:24:38;;;;;;;11.40;10.20;;;;;;;30.39;53.46;99054.78;222027;1298;22572;-72
2023/06/22 11:29:40;;;;;;;10.30;9.40;;;;;;;30.38;52.94;99054.91;221545;1298;137905;-72
2023/06/22 11:34:42;;;;;;;10.40;9.60;;;;;;;30.42;53.02;99049.48;221587;1302;138120;-70
2023/06/22 11:39:44;;;;;;;10.70;9.70;;;;;;;30.49;52.66;99056.09;221788;1295;138043;-72
2023/06/22 11:44:54;;;;;;;9.80;9.00;;;;;;;30.61;52.69;99046.06;221594;1301;138143;-72
2023/06/22 11:49:58;;;;;;;11.30;10.40;;;;;;;30.62;51.47;99046.75;221774;1301;137840;-72
2023/06/22 11:55:02;;;;;;;10.20;9.40;;;;;;;30.60;52.15;99035.77;221861;1295;22613;-72
2023/06/22 12:00:14;;;;;;;10.20;9.20;;;;;;;30.79;51.80;99031.02;221750;1282;137914;-71
2023/06/22 12:05:22;;;;;;;9.60;8.90;;;;;;;30.89;51.36;99024.16;221697;1279;138164;-71
2023/06/22 12:10:26;;;;;;;10.10;9.20;;;;;;;30.87;50.86;99021.98;221566;1291;138082;-71
2023/06/22 12:15:33;;;;;;;9.40;8.70;;;;;;;30.84;51.01;99009.20;221675;1295;138061;-71
2023/06/22 12:20:35;;;;;;;10.00;9.20;;;;;;;30.94;50.66;99003.84;221755;1295;137982;-70
2023/06/22 12:25:38;;;;;;;9.70;8.90;;;;;;;30.99;50.30;98997.15;221659;1300;138134;-70
2023/06/22 12:30:39;;;;;;;9.90;9.10;;;;;;;31.01;50.28;98994.35;221658;1298;24825;-70
2023/06/22 12:35:41;;;;;;;10.10;9.30;;;;;;;31.08;50.40;98988.25;221526;1285;137533;-71
2023/06/22 12:40:49;;;;;;;10.10;9.20;;;;;;;31.18;50.04;98984.11;221495;1295;138886;-69
2023/06/22 12:45:51;;;;;;;10.00;9.10;;;;;;;31.26;49.99;98976.06;221404;1298;138014;-71
2023/06/22 12:50:53;;;;;;;9.90;9.20;;;;;;;31.32;50.10;98967.67;221216;1295;138327;-72
2023/06/22 12:55:57;;;;;;;10.70;9.90;;;;;;;31.35;49.73;98966.55;221714;1296;137829;-71
2023/06/22 13:00:59;;;;;;;9.70;8.80;;;;;;;31.30;49.37;98962.45;221678;1282;22623;-71
2023/06/22 13:06:04;;;;;;;10.80;9.90;;;;;;;31.21;49.44;98960.47;221598;1301;137578;-72
2023/06/22 13:11:06;;;;;;;10.20;9.40;;;;;;;31.22;49.62;98953.89;221844;1283;137989;-71
2023/06/22 13:16:08;;;;;;;10.80;9.90;;;;;;;31.25;49.81;98947.59;221720;1292;137965;-71
2023/06/22 13:21:10;;;;;;;9.60;8.90;;;;;;;31.24;49.35;98949.65;221680;1279;138124;-72
2023/06/22 13:26:18;;;;;;;9.70;9.00;;;;;;;31.19;49.36;98940.31;221732;1295;137936;-71
2023/06/22 13:31:23;;;;;;;10.00;9.20;;;;;;;31.19;48.95;98939.14;221633;1295;22528;-71
2023/06/22 13:36:25;;;;;;;9.40;8.60;;;;;;;31.26;48.94;98936.87;221625;1302;22631;-70
2023/06/22 13:41:27;;;;;;;10.00;9.30;;;;;;;31.36;48.68;98933.46;221718;1295;137585;-71
2023/06/22 13:46:36;;;;;;;10.20;9.30;;;;;;;31.43;48.62;98931.29;221502;1279;137999;-69
2023/06/22 13:51:38;;;;;;;10.00;9.10;;;;;;;31.44;48.86;98925.86;221368;1288;138106;-69
2023/06/22 13:56:41;;;;;;;10.30;9.30;;;;;;;31.48;48.79;98930.57;221564;1288;138100;-70
2023/06/22 14:01:43;;;;;;;10.20;9.40;;;;;;;31.51;48.53;98927.19;221492;1295;25342;-72
2023/06/22 14:06:45;;;;;;;10.00;9.20;;;;;;;31.55;48.35;98923.86;221461;1298;22561;-72
2023/06/22 14:11:47;;;;;;;9.90;9.00;;;;;;;31.60;48.29;98919.84;221689;1301;23659;-72
2023/06/22 14:16:49;;;;;;;10.50;9.40;;;;;;;31.55;47.69;98923.79;221596;1299;22584;-72
2023/06/22 14:21:52;;;;;;;9.70;8.90;;;;;;;31.45;47.71;98918.02;221544;1302;22568;-71
2023/06/22 14:26:57;;;;;;;9.40;8.60;;;;;;;31.55;48.16;98909.77;221831;1302;22570;-71
2023/06/22 14:31:59;;;;;;;9.30;8.60;;;;;;;31.67;48.04;98901.42;222224;1299;22577;-72
2023/06/22 14:37:01;;;;;;;9.60;8.80;;;;;;;31.77;48.02;98897.69;222289;1298;22555;-72
2023/06/22 14:42:05;;;;;;;16.20;9.90;;;;;;;31.85;47.43;98900.83;222260;1301;24312;-72
2023/06/22 14:47:07;;;;;;;9.70;9.00;;;;;;;31.83;47.31;98898.90;222116;1298;22591;-72
2023/06/22 14:52:09;;;;;;;8.90;8.10;;;;;;;31.80;47.40;98905.55;222143;1298;22568;-72
2023/06/22 14:57:11;;;;;;;10.20;9.30;;;;;;;31.82;47.23;98896.10;222024;1302;22664;-71
2023/06/22 15:02:13;;;;;;;8.70;8.00;;;;;;;31.74;46.84;98897.56;222216;1301;22589;-72
2023/06/22 15:07:15;;;;;;;8.40;7.70;;;;;;;31.70;46.79;98893.50;222270;1295;25322;-72
2023/06/22 15:12:17;;;;;;;8.30;7.70;;;;;;;31.69;46.58;98890.09;222263;1301;22576;-72
2023/06/22 15:17:22;;;;;;;9.30;8.40;;;;;;;31.67;46.44;98887.16;222143;1298;22552;-72
2023/06/22 15:22:23;;;;;;;8.10;7.40;;;;;;;31.61;46.41;98880.14;222208;1280;26121;-72
2023/06/22 15:27:26;;;;;;;20.20;9.30;;;;;;;31.64;46.60;98871.00;222179;1302;22593;-72
2023/06/22 15:32:28;;;;;;;8.60;7.90;;;;;;;31.68;46.45;98871.92;222115;1302;22568;-72
2023/06/22 15:37:30;;;;;;;8.30;7.50;;;;;;;31.67;46.38;98871.34;222124;1295;22577;-72
2023/06/22 15:42:32;;;;;;;8.00;7.40;;;;;;;31.71;46.43;98863.37;222290;1302;22565;-71
2023/06/22 15:47:34;;;;;;;21.00;8.40;;;;;;;31.74;46.64;98866.27;222000;1301;22576;-71
2023/06/22 15:52:41;;;;;;;8.40;7.70;;;;;;;31.76;46.40;98867.12;222217;1303;22609;-71
2023/06/22 15:57:46;;;;;;;68.70;14.90;;;;;;;31.74;46.37;98863.27;222093;1301;22583;-71
2023/06/22 16:02:48;;;;;;;8.50;7.70;;;;;;;31.69;46.77;98859.00;222198;1300;22669;-72
2023/06/22 16:07:51;;;;;;;8.80;8.00;;;;;;;31.71;46.52;98854.02;222159;1301;25303;-72
2023/06/22 16:12:53;;;;;;;8.20;7.40;;;;;;;31.68;46.52;98849.73;222223;1302;22614;-72
2023/06/22 16:17:54;;;;;;;8.30;7.50;;;;;;;31.65;46.84;98851.15;222220;1301;22577;-73
2023/06/22 16:22:56;;;;;;;28.80;10.40;;;;;;;31.63;46.62;98845.99;222243;1298;22581;-72
2023/06/22 16:27:58;;;;;;;14.80;8.50;;;;;;;31.56;46.88;98838.11;222230;1299;22564;-71
2023/06/22 16:33:02;;;;;;;97.40;18.20;;;;;;;31.51;47.09;98839.39;222183;1301;24282;-72
2023/06/22 16:38:04;;;;;;;13.50;8.70;;;;;;;31.50;47.57;98833.38;222080;1295;22580;-72
2023/06/22 16:43:06;;;;;;;22.50;9.50;;;;;;;31.47;47.51;98828.83;222171;1299;22690;-72
2023/06/22 16:48:08;;;;;;;12.10;8.80;;;;;;;31.44;47.67;98823.09;222269;1299;22576;-72
2023/06/22 16:53:10;;;;;;;8.70;7.90;;;;;;;31.45;47.60;98816.88;222157;1301;22619;-71
2023/06/22 16:58:15;;;;;;;8.90;8.10;;;;;;;31.43;48.00;98813.13;222054;1299;24040;-72
2023/06/22 17:03:27;;;;;;;8.30;7.60;;;;;;;31.46;47.92;98804.58;222217;1301;22588;-72
2023/06/22 17:08:35;;;;;;;8.80;8.10;;;;;;;31.54;48.00;98804.86;222248;1302;24281;-73
2023/06/22 17:13:37;;;;;;;20.30;9.80;;;;;;;31.94;48.19;98802.57;222276;1295;25329;-74
2023/06/22 17:18:39;;;;;;;7.90;7.20;;;;;;;32.69;47.81;98800.64;222192;1299;22581;-72
2023/06/22 17:23:41;;;;;;;8.00;7.40;;;;;;;33.48;46.95;98801.79;222257;1302;22648;-71
2023/06/22 17:29:00;;;;;;;7.80;7.20;;;;;;;34.12;46.06;98796.36;222244;1280;22595;-72
2023/06/22 17:34:07;;;;;;;7.70;7.00;;;;;;;34.68;45.13;98788.34;222190;1301;22645;-71
2023/06/22 17:39:13;;;;;;;8.60;7.90;;;;;;;35.06;44.52;98783.80;222170;1298;22525;-72
2023/06/22 17:44:28;;;;;;;8.50;7.80;;;;;;;35.34;43.67;98774.41;222220;1295;22576;-72
2023/06/22 17:49:31;;;;;;;7.70;7.10;;;;;;;35.54;43.21;98767.52;222153;1303;24254;-72
2023/06/22 17:54:33;;;;;;;7.60;6.70;;;;;;;35.34;42.26;98760.31;222197;1302;22724;-73
2023/06/22 17:59:52;;;;;;;7.80;7.10;;;;;;;34.39;42.10;98757.77;222303;1299;22579;-72
2023/06/22 18:04:57;;;;;;;8.30;7.50;;;;;;;33.55;42.90;98753.17;222275;1298;23043;-72
2023/06/22 18:10:00;;;;;;;8.10;7.50;;;;;;;32.88;43.68;98750.78;222294;1301;22593;-72
2023/06/22 18:15:04;;;;;;;8.30;7.60;;;;;;;32.26;44.17;98736.45;222226;1302;116605;-72
2023/06/22 18:20:10;;;;;;;12.90;8.40;;;;;;;31.71;44.97;98731.26;222297;1302;22572;-72
2023/06/22 18:25:12;;;;;;;11.90;8.60;;;;;;;31.16;45.51;98728.39;222301;1302;22610;-72
2023/06/22 18:30:16;;;;;;;10.90;9.10;;;;;;;30.66;46.12;98729.59;222308;1299;22694;-72
2023/06/22 18:35:18;;;;;;;11.60;9.20;;;;;;;30.21;46.88;98732.16;222197;1302;22592;-73
2023/06/22 18:40:20;;;;;;;12.50;9.20;;;;;;;29.80;47.53;98731.73;222282;1298;22595;-73
2023/06/22 18:45:27;;;;;;;12.00;9.30;;;;;;;29.41;47.91;98733.95;222330;1299;22549;-72
2023/06/22 18:50:42;;;;;;;12.60;10.10;;;;;;;28.99;48.50;98735.04;222070;1302;25081;-72
2023/06/22 18:55:49;;;;;;;10.60;9.60;;;;;;;28.60;49.17;98745.25;222331;1302;22607;-71
2023/06/22 19:01:17;;;;;;;12.90;10.50;;;;;;;28.20;49.94;98748.55;222183;1301;24261;-72
2023/06/22 19:06:50;;;;;;;11.90;10.70;;;;;;;27.76;50.78;98753.13;222013;1302;22567;-72
2023/06/22 19:12:18;;;;;;;13.80;10.80;;;;;;;27.33;51.67;98754.26;222333;1298;22572;-71
2023/06/22 19:17:20;;;;;;;11.70;10.60;;;;;;;26.92;52.65;98761.98;222006;1302;22569;-71
2023/06/22 19:22:55;;;;;;;12.60;11.30;;;;;;;26.60;53.57;98758.71;222281;1295;22691;-71
2023/06/22 19:27:58;;;;;;;12.90;11.60;;;;;;;26.25;54.36;98759.10;222334;1302;22559;-71
2023/06/22 19:33:01;;;;;;;13.10;11.90;;;;;;;25.97;55.02;98759.92;222290;1300;22590;-72
2023/06/22 19:38:04;;;;;;;14.50;12.80;;;;;;;25.69;55.90;98755.84;222313;1302;22576;-71
2023/06/22 19:43:06;;;;;;;12.70;11.50;;;;;;;25.38;56.87;98760.03;222329;1299;22594;-71
2023/06/22 19:48:10;;;;;;;13.50;12.10;;;;;;;25.08;57.44;98762.99;222310;1299;23197;-72
2023/06/22 19:53:16;;;;;;;12.90;11.70;;;;;;;24.84;58.15;98760.77;222237;1301;22574;-71
2023/06/22 19:58:19;;;;;;;14.30;12.80;;;;;;;24.63;58.78;98759.52;222231;1302;25452;-70
2023/06/22 20:03:28;;;;;;;15.10;12.80;;;;;;;24.44;59.47;98757.57;222312;1301;22565;-73
2023/06/22 20:08:44;;;;;;;13.70;12.50;;;;;;;24.26;60.16;98759.55;222232;1302;22619;-71
2023/06/22 20:13:48;;;;;;;13.30;12.10;;;;;;;24.07;61.02;98752.33;222295;1301;22731;-72
2023/06/22 20:19:06;;;;;;;13.70;12.30;;;;;;;23.88;61.43;98748.55;222168;1303;22591;-71
2023/06/22 20:24:12;;;;;;;15.10;11.80;;;;;;;23.72;62.15;98735.98;222323;1298;22661;-71
2023/06/22 20:29:31;;;;;;;13.30;12.00;;;;;;;23.59;62.71;98724.57;222260;1303;22585;-71
2023/06/22 20:34:43;;;;;;;14.10;12.70;;;;;;;23.47;63.23;98724.30;222230;1298;22574;-71
2023/06/22 20:39:45;;;;;;;13.60;12.20;;;;;;;23.40;63.98;98723.52;222277;1301;22654;-72
2023/06/22 20:44:51;;;;;;;12.90;11.70;;;;;;;23.32;64.15;98728.64;222259;1302;22569;-71
2023/06/22 20:49:56;;;;;;;14.60;12.00;;;;;;;23.23;64.46;98727.95;222252;1301;22625;-72
2023/06/22 20:54:58;;;;;;;13.30;11.90;;;;;;;23.13;64.87;98713.73;222218;1302;22591;-71
2023/06/22 21:00:05;;;;;;;12.30;11.00;;;;;;;23.10;65.43;98705.70;222171;1302;22589;-71
2023/06/22 21:05:07;;;;;;;12.70;11.60;;;;;;;23.05;65.75;98716.26;222218;1303;22578;-71
2023/06/22 21:10:09;;;;;;;12.00;10.90;;;;;;;23.00;65.84;98719.45;222227;1301;24291;-71
2023/06/22 21:15:16;;;;;;;12.10;11.00;;;;;;;22.91;66.02;98726.67;222006;1303;22598;-71
2023/06/22 21:20:18;;;;;;;11.00;9.90;;;;;;;22.80;66.31;98717.52;222203;1298;22575;-72
2023/06/22 21:25:20;;;;;;;11.60;10.50;;;;;;;22.71;66.81;98713.81;222132;1301;22617;-71
2023/06/22 21:30:22;;;;;;;12.90;11.60;;;;;;;22.66;67.11;98718.61;222225;1303;23523;-71
2023/06/22 21:35:24;;;;;;;12.10;11.10;;;;;;;22.59;67.16;98716.00;222206;1302;22583;-71
2023/06/22 21:40:26;;;;;;;11.90;10.80;;;;;;;22.52;67.45;98707.17;222366;1302;22565;-71
2023/06/22 21:45:28;;;;;;;12.80;11.40;;;;;;;22.45;67.74;98701.05;222245;1298;22600;-71
2023/06/22 21:50:30;;;;;;;12.60;11.30;;;;;;;22.38;67.88;98693.13;222238;1301;22569;-71
2023/06/22 21:55:32;;;;;;;12.80;11.60;;;;;;;22.34;68.30;98683.44;222316;1302;22555;-71
2023/06/22 22:00:35;;;;;;;12.30;10.90;;;;;;;22.29;68.37;98675.51;222225;1302;22577;-71
2023/06/22 22:05:36;;;;;;;13.50;12.10;;;;;;;22.21;68.64;98669.05;222289;1295;24331;-71
2023/06/22 22:10:38;;;;;;;11.80;10.70;;;;;;;22.14;68.89;98656.25;222096;1302;22960;-71
2023/06/22 22:15:40;;;;;;;11.40;10.40;;;;;;;22.07;69.23;98643.92;222214;1302;22567;-71
2023/06/22 22:20:42;;;;;;;12.50;11.40;;;;;;;22.02;69.49;98621.58;222229;1300;24284;-71
2023/06/22 22:25:44;;;;;;;12.20;11.10;;;;;;;21.97;69.48;98613.90;222369;1300;22568;-71
2023/06/22 22:30:47;;;;;;;12.20;11.10;;;;;;;21.90;69.59;98598.34;222330;1302;22564;-71
2023/06/22 22:35:49;;;;;;;14.00;11.10;;;;;;;21.84;69.91;98579.95;222289;1295;22575;-71
2023/06/22 22:40:50;;;;;;;12.80;11.50;;;;;;;21.80;70.27;98574.21;222210;1301;22582;-71
2023/06/22 22:45:52;;;;;;;12.70;11.40;;;;;;;21.73;70.35;98574.23;222216;1301;22615;-71
2023/06/22 22:50:54;;;;;;;13.40;11.70;;;;;;;21.65;70.35;98575.73;222324;1298;22602;-70
2023/06/22 22:55:57;;;;;;;12.30;11.00;;;;;;;21.55;70.74;98565.26;222337;1295;22590;-71
2023/06/22 23:01:01;;;;;;;12.40;10.60;;;;;;;21.50;71.14;98566.02;222166;1299;22588;-71
2023/06/22 23:06:03;;;;;;;12.90;11.60;;;;;;;21.47;71.29;98563.84;222180;1301;22580;-71
2023/06/22 23:11:05;;;;;;;11.10;10.20;;;;;;;21.46;71.26;98558.35;222203;1301;22584;-71
2023/06/22 23:16:07;;;;;;;10.90;9.90;;;;;;;21.46;71.68;98538.94;222224;1303;22569;-71
2023/06/22 23:21:09;;;;;;;10.80;9.90;;;;;;;21.45;71.66;98527.06;222316;1302;22615;-71
2023/06/22 23:26:12;;;;;;;11.70;10.40;;;;;;;21.44;71.85;98521.89;222346;1295;22576;-71